createdAt,value
2018-09-26T00:00:32.536Z,2.00
2018-09-26T00:03:13.197Z,2.00
2018-09-26T00:05:41.802Z,2.00
2018-09-26T00:08:10.351Z,2.00
2018-09-26T00:10:38.855Z,2.00
2018-09-26T00:13:13.733Z,2.00
2018-09-26T00:15:42.259Z,2.00
2018-09-26T00:18:10.749Z,2.00
2018-09-26T00:20:39.317Z,2.00
2018-09-26T00:23:08.081Z,2.00
2018-09-26T00:25:36.600Z,2.00
2018-09-26T00:28:05.163Z,2.00
2018-09-26T00:30:33.692Z,2.00
2018-09-26T00:33:02.174Z,1.90
2018-09-26T00:35:31.023Z,1.90
2018-09-26T00:37:59.540Z,1.90
2018-09-26T00:40:28.051Z,1.80
2018-09-26T00:42:56.634Z,1.80
2018-09-26T00:45:25.116Z,1.80
2018-09-26T00:47:53.638Z,1.70
2018-09-26T00:50:22.211Z,1.70
2018-09-26T00:52:50.748Z,1.70
2018-09-26T00:55:19.229Z,1.70
2018-09-26T00:57:47.729Z,1.60
2018-09-26T01:00:16.265Z,1.60
2018-09-26T01:02:44.755Z,1.50
2018-09-26T01:05:13.305Z,1.50
2018-09-26T01:07:41.818Z,1.50
2018-09-26T01:10:10.354Z,1.50
2018-09-26T01:12:38.922Z,1.40
2018-09-26T01:15:07.496Z,1.40
2018-09-26T01:17:36.013Z,1.40
2018-09-26T01:20:04.547Z,1.40
2018-09-26T01:22:33.047Z,1.40
2018-09-26T01:25:01.582Z,1.30
2018-09-26T01:27:33.032Z,1.20
2018-09-26T01:30:02.824Z,1.10
2018-09-26T01:32:31.335Z,1.00
2018-09-26T01:34:59.883Z,1.00
2018-09-26T01:37:28.431Z,1.00
2018-09-26T01:39:57.256Z,1.00
2018-09-26T01:42:25.812Z,1.10
2018-09-26T01:44:54.320Z,1.00
2018-09-26T01:47:22.859Z,0.90
2018-09-26T01:49:51.339Z,0.80
2018-09-26T01:52:19.811Z,0.80
2018-09-26T01:54:48.353Z,0.80
2018-09-26T01:57:16.917Z,0.80
2018-09-26T01:59:45.476Z,0.90
2018-09-26T02:02:13.975Z,0.90
2018-09-26T02:04:42.479Z,0.90
2018-09-26T02:07:10.971Z,0.80
2018-09-26T02:09:39.505Z,0.70
2018-09-26T02:12:08.360Z,0.70
2018-09-26T02:14:36.854Z,0.70
2018-09-26T02:17:05.438Z,0.80
2018-09-26T02:19:33.977Z,0.90
2018-09-26T02:22:02.533Z,0.80
2018-09-26T02:24:31.060Z,0.70
2018-09-26T02:26:59.591Z,0.60
2018-09-26T02:29:28.089Z,0.50
2018-09-26T02:31:56.632Z,0.50
2018-09-26T02:34:25.134Z,0.50
2018-09-26T02:36:53.652Z,0.40
2018-09-26T02:39:22.160Z,0.30
2018-09-26T02:41:50.717Z,0.30
2018-09-26T02:44:19.238Z,0.30
2018-09-26T02:46:49.895Z,0.20
2018-09-26T02:49:18.402Z,0.30
2018-09-26T02:51:46.953Z,0.20
2018-09-26T02:54:15.456Z,0.20
2018-09-26T02:56:43.988Z,0.10
2018-09-26T02:59:12.516Z,0.10
2018-09-26T03:01:41.025Z,0.10
2018-09-26T03:04:09.549Z,0.20
2018-09-26T03:06:38.062Z,0.20
2018-09-26T03:09:07.968Z,0.10
2018-09-26T03:11:36.481Z,0.00
2018-09-26T03:14:05.038Z,0.00
2018-09-26T03:16:33.604Z,0.00
2018-09-26T03:19:02.149Z,-0.10
2018-09-26T03:21:30.792Z,-0.10
2018-09-26T03:23:59.308Z,-0.10
2018-09-26T03:26:27.824Z,-0.10
2018-09-26T03:28:56.332Z,0.00
2018-09-26T03:31:24.841Z,-0.10
2018-09-26T03:33:53.396Z,-0.20
2018-09-26T03:36:21.937Z,-0.20
2018-09-26T03:38:50.477Z,-0.10
2018-09-26T03:41:18.988Z,-0.10
2018-09-26T03:43:47.538Z,-0.10
2018-09-26T03:46:16.067Z,-0.10
2018-09-26T03:48:44.555Z,-0.20
2018-09-26T03:51:13.071Z,-0.20
2018-09-26T03:53:41.604Z,-0.20
2018-09-26T03:56:10.096Z,-0.20
2018-09-26T03:58:38.633Z,-0.20
2018-09-26T04:01:07.204Z,-0.20
2018-09-26T04:03:35.700Z,-0.30
2018-09-26T04:06:04.324Z,-0.20
2018-09-26T04:08:32.831Z,-0.20
2018-09-26T04:11:01.365Z,-0.10
2018-09-26T04:13:29.906Z,-0.20
2018-09-26T04:15:58.396Z,-0.30
2018-09-26T04:18:27.419Z,-0.30
2018-09-26T04:20:56.510Z,-0.40
2018-09-26T04:23:25.053Z,-0.40
2018-09-26T04:25:53.578Z,-0.50
2018-09-26T04:28:22.115Z,-0.50
2018-09-26T04:30:50.912Z,-0.60
2018-09-26T04:33:19.549Z,-0.60
2018-09-26T04:35:47.972Z,-0.60
2018-09-26T04:38:16.483Z,-0.70
2018-09-26T04:40:44.995Z,-0.70
2018-09-26T04:43:13.567Z,-0.70
2018-09-26T04:45:43.612Z,-0.70
2018-09-26T04:48:12.211Z,-0.80
2018-09-26T04:50:40.724Z,-0.80
2018-09-26T04:53:09.223Z,-0.80
2018-09-26T04:55:37.772Z,-0.80
2018-09-26T04:58:06.545Z,-0.80
2018-09-26T05:00:35.031Z,-0.80
2018-09-26T05:03:03.553Z,-0.80
2018-09-26T05:05:32.028Z,-0.80
2018-09-26T05:08:00.577Z,-0.80
2018-09-26T05:10:29.085Z,-0.70
2018-09-26T05:12:57.649Z,-0.70
2018-09-26T05:15:26.216Z,-0.70
2018-09-26T05:17:56.249Z,-0.70
2018-09-26T05:20:26.030Z,-0.70
2018-09-26T05:22:55.681Z,-0.60
2018-09-26T05:25:25.206Z,-0.60
2018-09-26T05:27:58.636Z,-0.60
2018-09-26T05:30:28.136Z,-0.60
2018-09-26T05:32:59.598Z,-0.50
2018-09-26T05:35:29.716Z,-0.30
2018-09-26T05:38:01.519Z,0.20
2018-09-26T05:40:31.657Z,0.40
2018-09-26T05:43:01.318Z,0.50
2018-09-26T05:45:29.842Z,0.60
2018-09-26T05:47:58.373Z,0.80
2018-09-26T05:50:26.875Z,0.70
2018-09-26T05:52:55.425Z,0.70
2018-09-26T05:55:23.955Z,0.70
2018-09-26T05:57:52.488Z,0.60
2018-09-26T06:00:21.019Z,0.70
2018-09-26T06:02:49.536Z,0.80
2018-09-26T06:05:18.128Z,1.00
2018-09-26T06:07:46.598Z,1.30
2018-09-26T06:10:15.132Z,1.50
2018-09-26T06:12:43.710Z,1.50
2018-09-26T06:15:12.217Z,1.40
2018-09-26T06:17:40.786Z,1.20
2018-09-26T06:20:09.324Z,1.20
2018-09-26T06:22:37.858Z,1.10
2018-09-26T06:25:06.431Z,1.30
2018-09-26T06:27:34.948Z,3.00
2018-09-26T06:30:03.552Z,4.70
2018-09-26T06:32:32.074Z,5.60
2018-09-26T06:35:00.634Z,6.10
2018-09-26T06:37:29.152Z,7.00
2018-09-26T06:39:57.647Z,7.40
2018-09-26T06:42:26.177Z,7.80
2018-09-26T06:44:54.692Z,7.10
2018-09-26T06:47:23.228Z,6.80
2018-09-26T06:49:51.742Z,8.00
2018-09-26T06:52:20.256Z,9.50
2018-09-26T06:54:48.804Z,11.00
2018-09-26T06:57:17.361Z,12.10
2018-09-26T06:59:45.914Z,12.70
2018-09-26T07:02:14.520Z,13.10
2018-09-26T07:04:43.018Z,13.60
2018-09-26T07:07:11.562Z,14.20
2018-09-26T07:09:40.078Z,14.30
2018-09-26T07:12:08.603Z,13.80
2018-09-26T07:14:37.133Z,13.30
2018-09-26T07:17:05.708Z,13.50
2018-09-26T07:19:34.230Z,13.60
2018-09-26T07:22:02.767Z,13.80
2018-09-26T07:24:31.282Z,14.70
2018-09-26T07:26:59.836Z,14.90
2018-09-26T07:29:28.358Z,15.10
2018-09-26T07:31:56.883Z,15.40
2018-09-26T07:34:30.632Z,16.50
2018-09-26T07:36:59.536Z,17.60
2018-09-26T07:39:28.027Z,18.30
2018-09-26T07:41:56.547Z,19.10
2018-09-26T07:44:25.056Z,19.00
2018-09-26T07:46:53.643Z,18.90
2018-09-26T07:49:22.259Z,19.10
2018-09-26T07:51:50.810Z,18.50
2018-09-26T07:54:19.534Z,17.50
2018-09-26T07:56:48.527Z,16.90
2018-09-26T07:59:17.044Z,17.20
2018-09-26T08:01:45.817Z,17.30
2018-09-26T08:04:14.357Z,17.00
2018-09-26T08:06:43.749Z,17.00
2018-09-26T08:09:12.491Z,17.30
2018-09-26T08:11:41.080Z,17.60
2018-09-26T08:14:09.540Z,17.20
2018-09-26T08:16:38.102Z,17.10
2018-09-26T08:19:06.606Z,16.90
2018-09-26T08:21:35.186Z,17.20
2018-09-26T08:24:03.811Z,17.60
2018-09-26T08:26:32.244Z,17.70
2018-09-26T08:29:00.768Z,17.30
2018-09-26T08:31:29.288Z,16.90
2018-09-26T08:33:57.833Z,16.40
2018-09-26T08:36:26.347Z,15.80
2018-09-26T08:38:54.868Z,15.60
2018-09-26T08:41:23.390Z,15.30
2018-09-26T08:43:51.909Z,15.10
2018-09-26T08:46:20.427Z,14.80
2018-09-26T08:48:48.949Z,14.90
2018-09-26T08:51:17.576Z,14.90
2018-09-26T08:53:46.179Z,14.60
2018-09-26T08:56:14.699Z,14.60
2018-09-26T08:58:43.221Z,14.60
2018-09-26T09:01:16.982Z,14.80
2018-09-26T09:03:45.485Z,14.80
2018-09-26T09:06:14.107Z,14.90
2018-09-26T09:08:42.597Z,15.10
2018-09-26T09:11:11.135Z,15.20
2018-09-26T09:13:39.647Z,15.30
2018-09-26T09:16:08.175Z,15.50
2018-09-26T09:18:36.690Z,15.70
2018-09-26T09:21:05.245Z,15.90
2018-09-26T09:23:33.758Z,16.10
2018-09-26T09:26:02.369Z,16.30
2018-09-26T09:28:30.921Z,16.50
2018-09-26T09:30:59.431Z,16.60
2018-09-26T09:33:27.959Z,16.50
2018-09-26T09:35:56.516Z,16.50
2018-09-26T09:38:25.018Z,16.70
2018-09-26T09:40:53.557Z,17.00
2018-09-26T09:43:22.703Z,17.20
2018-09-26T09:45:51.253Z,17.40
2018-09-26T09:48:19.807Z,17.40
2018-09-26T09:50:48.289Z,17.40
2018-09-26T09:53:19.088Z,17.30
2018-09-26T09:55:49.741Z,17.50
2018-09-26T09:58:18.307Z,17.60
2018-09-26T10:00:52.011Z,17.40
2018-09-26T10:03:20.579Z,17.40
2018-09-26T10:05:49.124Z,17.40
2018-09-26T10:08:17.673Z,17.50
2018-09-26T10:10:46.219Z,17.50
2018-09-26T10:13:14.732Z,17.50
2018-09-26T10:15:43.532Z,17.60
2018-09-26T10:18:12.084Z,17.60
2018-09-26T10:20:40.611Z,17.60
2018-09-26T10:23:09.131Z,17.60
2018-09-26T10:25:37.652Z,17.50
2018-09-26T10:28:06.400Z,17.50
2018-09-26T10:30:34.941Z,17.60
2018-09-26T10:33:03.464Z,17.80
2018-09-26T10:35:32.040Z,17.90
2018-09-26T10:38:00.593Z,18.10
2018-09-26T10:40:29.484Z,18.20
2018-09-26T10:42:58.021Z,18.30
2018-09-26T10:45:26.570Z,18.50
2018-09-26T10:47:55.081Z,18.70
2018-09-26T10:50:23.630Z,18.80
2018-09-26T10:52:52.219Z,18.90
2018-09-26T10:55:20.725Z,18.90
2018-09-26T10:57:49.238Z,18.70
2018-09-26T11:00:17.822Z,18.70
2018-09-26T11:02:46.337Z,18.60
2018-09-26T11:05:14.911Z,18.90
2018-09-26T11:07:43.395Z,19.20
2018-09-26T11:10:11.988Z,19.30
2018-09-26T11:12:40.514Z,19.30
2018-09-26T11:15:09.048Z,19.40
2018-09-26T11:17:37.515Z,19.40
2018-09-26T11:20:06.612Z,19.40
2018-09-26T11:22:35.127Z,19.50
2018-09-26T11:25:03.704Z,19.40
2018-09-26T11:27:32.172Z,19.50
2018-09-26T11:30:00.682Z,19.60
2018-09-26T11:32:29.176Z,19.50
2018-09-26T11:34:57.914Z,19.60
2018-09-26T11:37:26.453Z,19.70
2018-09-26T11:39:54.939Z,19.60
2018-09-26T11:42:23.444Z,19.80
2018-09-26T11:44:52.032Z,19.90
2018-09-26T11:47:20.487Z,20.10
2018-09-26T11:49:49.020Z,20.30
2018-09-26T11:52:17.587Z,20.40
2018-09-26T11:54:46.077Z,20.60
2018-09-26T11:57:14.595Z,20.70
2018-09-26T11:59:43.093Z,20.70
2018-09-26T12:02:11.677Z,20.70
2018-09-26T12:04:40.141Z,20.80
2018-09-26T12:07:08.719Z,20.90
2018-09-26T12:09:37.249Z,21.00
2018-09-26T12:12:05.772Z,21.10
2018-09-26T12:14:34.305Z,21.10
2018-09-26T12:17:02.824Z,21.20
2018-09-26T12:19:31.372Z,21.10
2018-09-26T12:22:00.809Z,21.00
2018-09-26T12:24:29.362Z,20.80
2018-09-26T12:26:57.907Z,20.80
2018-09-26T12:29:26.419Z,21.00
2018-09-26T12:31:54.935Z,21.10
2018-09-26T12:34:23.459Z,21.00
2018-09-26T12:36:51.960Z,20.90
2018-09-26T12:39:20.512Z,21.00
2018-09-26T12:41:49.024Z,21.00
2018-09-26T12:44:17.540Z,21.10
2018-09-26T12:46:46.117Z,21.20
2018-09-26T12:49:14.619Z,21.30
2018-09-26T12:51:43.119Z,21.30
2018-09-26T12:54:11.647Z,21.30
2018-09-26T12:56:40.146Z,21.40
2018-09-26T12:59:08.654Z,21.60
2018-09-26T13:01:37.140Z,21.60
2018-09-26T13:04:05.675Z,21.40
2018-09-26T13:06:34.163Z,21.40
2018-09-26T13:09:02.771Z,21.40
2018-09-26T13:11:31.252Z,21.00
2018-09-26T13:13:59.771Z,20.90
2018-09-26T13:16:28.292Z,21.00
2018-09-26T13:18:56.843Z,20.90
2018-09-26T13:21:25.323Z,20.90
2018-09-26T13:23:53.815Z,20.90
2018-09-26T13:26:22.379Z,21.10
2018-09-26T13:28:50.852Z,21.20
2018-09-26T13:31:19.340Z,21.40
2018-09-26T13:33:47.859Z,21.50
2018-09-26T13:36:16.348Z,21.50
2018-09-26T13:38:44.836Z,21.10
2018-09-26T13:41:13.386Z,21.10
2018-09-26T13:43:42.336Z,21.10
2018-09-26T13:46:10.995Z,21.10
2018-09-26T13:48:39.340Z,21.30
2018-09-26T13:51:07.966Z,21.30
2018-09-26T13:53:36.453Z,20.90
2018-09-26T13:56:04.938Z,20.60
2018-09-26T13:58:33.439Z,20.40
2018-09-26T14:01:01.913Z,20.40
2018-09-26T14:03:30.424Z,20.50
2018-09-26T14:05:59.002Z,20.60
2018-09-26T14:08:27.688Z,20.60
2018-09-26T14:10:56.170Z,20.70
2018-09-26T14:13:24.644Z,20.50
2018-09-26T14:15:53.119Z,20.80
2018-09-26T14:18:21.698Z,20.90
2018-09-26T14:20:50.148Z,20.80
2018-09-26T14:23:18.648Z,20.80
2018-09-26T14:25:47.151Z,20.70
2018-09-26T14:28:15.643Z,20.70
2018-09-26T14:30:44.238Z,20.70
2018-09-26T14:33:12.700Z,20.60
2018-09-26T14:35:41.257Z,20.80
2018-09-26T14:38:09.770Z,20.90
2018-09-26T14:40:38.249Z,20.60
2018-09-26T14:43:07.020Z,20.30
2018-09-26T14:45:35.528Z,20.10
2018-09-26T14:48:04.108Z,20.20
2018-09-26T14:50:32.643Z,20.30
2018-09-26T14:53:01.128Z,20.30
2018-09-26T14:55:29.668Z,20.30
2018-09-26T14:57:58.242Z,20.10
2018-09-26T15:00:26.876Z,20.10
2018-09-26T15:02:55.286Z,20.10
2018-09-26T15:05:23.785Z,20.00
2018-09-26T15:07:52.288Z,20.10
2018-09-26T15:10:20.831Z,20.10
2018-09-26T15:12:49.352Z,20.10
2018-09-26T15:15:17.824Z,20.10
2018-09-26T15:17:46.328Z,20.00
2018-09-26T15:20:14.933Z,20.00
2018-09-26T15:22:43.338Z,19.90
2018-09-26T15:25:11.828Z,19.80
2018-09-26T15:27:40.426Z,19.60
2018-09-26T15:30:08.967Z,19.50
2018-09-26T15:32:37.580Z,19.30
2018-09-26T15:35:06.216Z,19.20
2018-09-26T15:37:34.903Z,19.00
2018-09-26T15:40:03.546Z,19.00
2018-09-26T15:42:33.956Z,18.90
2018-09-26T15:45:02.585Z,18.70
2018-09-26T15:47:31.129Z,18.50
2018-09-26T15:49:59.688Z,18.50
2018-09-26T15:52:28.180Z,18.40
2018-09-26T15:54:56.692Z,18.40
2018-09-26T15:57:25.186Z,18.40
2018-09-26T15:59:53.684Z,18.20
2018-09-26T16:02:22.291Z,18.20
2018-09-26T16:04:50.766Z,18.20
2018-09-26T16:07:19.264Z,18.20
2018-09-26T16:09:47.771Z,18.10
2018-09-26T16:12:16.347Z,18.10
2018-09-26T16:14:44.881Z,17.80
2018-09-26T16:17:13.411Z,17.50
2018-09-26T16:19:41.915Z,17.40
2018-09-26T16:22:10.494Z,17.20
2018-09-26T16:24:38.975Z,17.10
2018-09-26T16:27:07.586Z,17.00
2018-09-26T16:29:36.106Z,16.90
2018-09-26T16:32:04.632Z,16.70
2018-09-26T16:34:33.976Z,16.70
2018-09-26T16:37:02.507Z,16.70
2018-09-26T16:39:31.101Z,16.70
2018-09-26T16:41:59.643Z,16.70
2018-09-26T16:44:28.127Z,16.70
2018-09-26T16:46:56.859Z,16.50
2018-09-26T16:49:25.385Z,16.20
2018-09-26T16:51:53.900Z,16.00
2018-09-26T16:54:22.602Z,16.00
2018-09-26T16:56:50.964Z,16.00
2018-09-26T16:59:19.501Z,16.00
2018-09-26T17:01:47.971Z,16.00
2018-09-26T17:04:16.476Z,15.90
2018-09-26T17:06:45.604Z,15.80
2018-09-26T17:09:14.084Z,15.70
2018-09-26T17:11:42.638Z,15.60
2018-09-26T17:14:11.523Z,15.50
2018-09-26T17:16:40.057Z,15.40
2018-09-26T17:19:08.821Z,15.20
2018-09-26T17:21:37.300Z,15.00
2018-09-26T17:24:05.955Z,14.90
2018-09-26T17:26:34.459Z,14.70
2018-09-26T17:29:03.007Z,14.60
2018-09-26T17:31:31.520Z,14.40
2018-09-26T17:33:59.991Z,14.10
2018-09-26T17:36:28.579Z,13.80
2018-09-26T17:38:57.089Z,13.70
2018-09-26T17:41:25.571Z,13.60
2018-09-26T17:43:54.071Z,13.60
2018-09-26T17:46:22.617Z,13.50
2018-09-26T17:48:51.114Z,13.40
2018-09-26T17:51:19.621Z,13.30
2018-09-26T17:53:48.119Z,13.30
2018-09-26T17:56:16.620Z,13.10
2018-09-26T17:58:45.135Z,12.90
2018-09-26T18:01:13.646Z,12.70
2018-09-26T18:03:42.152Z,12.50
2018-09-26T18:06:10.657Z,12.50
2018-09-26T18:08:39.263Z,12.60
2018-09-26T18:11:07.884Z,12.70
2018-09-26T18:13:36.477Z,12.70
2018-09-26T18:16:05.142Z,12.70
2018-09-26T18:18:33.629Z,12.60
2018-09-26T18:21:02.129Z,12.60
2018-09-26T18:23:30.648Z,12.60
2018-09-26T18:25:59.181Z,12.40
2018-09-26T18:28:27.672Z,12.20
2018-09-26T18:30:56.167Z,12.00
2018-09-26T18:33:24.738Z,11.90
2018-09-26T18:35:53.306Z,11.80
2018-09-26T18:38:21.829Z,11.70
2018-09-26T18:40:51.454Z,11.60
2018-09-26T18:43:19.966Z,11.50
2018-09-26T18:45:48.475Z,11.40
2018-09-26T18:48:17.008Z,11.20
2018-09-26T18:50:45.536Z,11.00
2018-09-26T18:53:14.074Z,11.10
2018-09-26T18:55:42.610Z,11.10
2018-09-26T18:58:11.141Z,11.00
2018-09-26T19:00:39.684Z,10.90
2018-09-26T19:03:08.340Z,10.90
2018-09-26T19:05:36.761Z,10.80
2018-09-26T19:08:05.275Z,10.70
2018-09-26T19:10:33.781Z,10.60
2018-09-26T19:13:03.673Z,10.50
2018-09-26T19:15:33.649Z,10.50
2018-09-26T19:18:03.616Z,10.50
2018-09-26T19:20:33.559Z,10.50
2018-09-26T19:23:02.114Z,10.40
2018-09-26T19:25:32.436Z,10.30
2018-09-26T19:28:02.956Z,10.30
2018-09-26T19:30:33.187Z,10.20
2018-09-26T19:33:03.684Z,10.10
2018-09-26T19:35:33.842Z,10.10
2018-09-26T19:38:02.568Z,10.10
2018-09-26T19:40:31.331Z,10.00
2018-09-26T19:42:59.862Z,10.00
2018-09-26T19:45:28.558Z,9.90
2018-09-26T19:47:57.080Z,9.90
2018-09-26T19:50:25.915Z,9.90
2018-09-26T19:52:54.427Z,9.90
2018-09-26T19:55:23.054Z,9.80
2018-09-26T19:57:51.679Z,9.80
2018-09-26T20:00:20.268Z,9.70
2018-09-26T20:02:48.788Z,9.60
2018-09-26T20:05:17.295Z,9.60
2018-09-26T20:07:45.803Z,9.50
2018-09-26T20:10:14.371Z,9.40
2018-09-26T20:12:42.818Z,9.50
2018-09-26T20:15:11.367Z,9.40
2018-09-26T20:17:39.872Z,9.20
2018-09-26T20:20:08.441Z,9.10
2018-09-26T20:22:37.025Z,9.10
2018-09-26T20:25:05.700Z,9.10
2018-09-26T20:27:34.354Z,9.10
2018-09-26T20:30:02.785Z,9.00
2018-09-26T20:32:31.285Z,9.00
2018-09-26T20:34:59.870Z,9.00
2018-09-26T20:37:28.332Z,9.00
2018-09-26T20:39:56.888Z,8.90
2018-09-26T20:42:25.388Z,8.70
2018-09-26T20:44:53.927Z,8.60
2018-09-26T20:47:22.476Z,8.70
2018-09-26T20:49:51.231Z,8.70
2018-09-26T20:52:19.753Z,8.70
2018-09-26T20:54:48.575Z,8.70
2018-09-26T20:57:17.092Z,8.60
2018-09-26T20:59:45.604Z,8.60
2018-09-26T21:02:14.144Z,8.60
2018-09-26T21:04:42.680Z,8.60
2018-09-26T21:07:11.201Z,8.60
2018-09-26T21:09:39.740Z,8.60
2018-09-26T21:12:08.309Z,8.60
2018-09-26T21:14:36.837Z,8.50
2018-09-26T21:17:05.364Z,8.50
2018-09-26T21:19:33.880Z,8.50
2018-09-26T21:22:02.376Z,8.40
2018-09-26T21:24:30.957Z,8.30
2018-09-26T21:26:59.484Z,8.30
2018-09-26T21:29:28.020Z,8.30
2018-09-26T21:31:56.568Z,8.20
2018-09-26T21:34:25.414Z,8.10
2018-09-26T21:36:53.909Z,8.10
2018-09-26T21:39:22.455Z,8.10
2018-09-26T21:41:51.005Z,8.10
2018-09-26T21:44:19.504Z,8.00
2018-09-26T21:46:47.992Z,8.00
2018-09-26T21:49:16.516Z,7.90
2018-09-26T21:51:45.081Z,7.80
2018-09-26T21:54:13.585Z,7.80
2018-09-26T21:56:42.103Z,7.80
2018-09-26T21:59:10.628Z,7.80
2018-09-26T22:01:39.128Z,7.80
2018-09-26T22:04:07.777Z,7.70
2018-09-26T22:06:36.341Z,7.70
2018-09-26T22:09:06.697Z,7.70
2018-09-26T22:11:35.239Z,7.60
2018-09-26T22:14:03.799Z,7.60
2018-09-26T22:16:32.301Z,7.60
2018-09-26T22:19:00.857Z,7.60
2018-09-26T22:21:29.369Z,7.50
2018-09-26T22:23:57.881Z,7.50
2018-09-26T22:26:26.497Z,7.40
2018-09-26T22:28:54.985Z,7.30
2018-09-26T22:31:23.590Z,7.20
2018-09-26T22:33:52.020Z,7.20
2018-09-26T22:36:20.540Z,7.10
2018-09-26T22:38:49.070Z,7.00
2018-09-26T22:41:17.556Z,7.10
2018-09-26T22:43:47.913Z,7.10
2018-09-26T22:46:16.387Z,7.10
2018-09-26T22:48:44.907Z,7.20
2018-09-26T22:51:13.429Z,7.10
2018-09-26T22:53:41.963Z,7.10
2018-09-26T22:56:10.489Z,7.00
2018-09-26T22:58:38.979Z,7.00
2018-09-26T23:01:07.472Z,7.00
2018-09-26T23:03:35.966Z,6.90
2018-09-26T23:06:04.470Z,6.80
2018-09-26T23:08:39.280Z,6.80
2018-09-26T23:11:07.788Z,6.80
2018-09-26T23:13:36.576Z,6.80
2018-09-26T23:16:05.172Z,6.70
2018-09-26T23:18:33.685Z,6.70
2018-09-26T23:21:02.257Z,6.70
2018-09-26T23:23:30.993Z,6.70
2018-09-26T23:25:59.500Z,6.60
2018-09-26T23:28:28.024Z,6.50
2018-09-26T23:30:56.491Z,6.50
2018-09-26T23:33:25.014Z,6.50
2018-09-26T23:35:53.507Z,6.50
2018-09-26T23:38:22.048Z,6.50
2018-09-26T23:40:50.564Z,6.50
2018-09-26T23:43:19.064Z,6.30
2018-09-26T23:45:47.565Z,6.20
2018-09-26T23:48:16.071Z,6.20
2018-09-26T23:50:44.552Z,6.20
2018-09-26T23:53:13.067Z,6.10
2018-09-26T23:55:41.581Z,6.10
2018-09-26T23:58:10.105Z,6.10
